Manor Park, United Kingdom
Current Conditions -  °F | °C
As of 9:50 AM on Tuesday 21 Oct 2014 (Local Time) from EGLC Reporting Station
Scattered Clouds Scattered Clouds  
Wind Chill: 59°   Ceiling: Unl
Heat Index: 59°   Visibility: 6mi
Dew Point: 50°   Wind: 22mph
Humidity: 72%   Direction: 260°W
Pressure: 29.56"   Gusts: 36mph
Location:  51.55°N, 0.05°E
Report Text: EGLC 210850Z 26019G31KT 9999 SCT022 15/10 Q1001
Loading
Personal Weather Stations






























Interactive Weather Map
Tropical Storm Tracking
New forecast layout! Learn more

10-Day Weather Forecast

Advertisements
Track Severe Weather on mobile